createdAt,value
2023-01-09T00:01:13.467Z,19.52
2023-01-09T00:03:40.879Z,19.98
2023-01-09T00:06:08.423Z,15.30
2023-01-09T00:08:36.153Z,18.52
2023-01-09T00:11:06.526Z,15.68
2023-01-09T00:13:34.650Z,19.90
2023-01-09T00:16:05.226Z,15.77
2023-01-09T00:18:33.968Z,18.48
2023-01-09T00:21:06.664Z,17.27
2023-01-09T00:23:34.481Z,17.42
2023-01-09T00:26:22.595Z,16.58
2023-01-09T00:28:52.120Z,18.35
2023-01-09T00:31:20.281Z,17.65
2023-01-09T00:34:05.001Z,16.15
2023-01-09T00:36:32.665Z,17.65
2023-01-09T00:39:00.178Z,18.33
2023-01-09T00:41:32.896Z,15.65
2023-01-09T00:44:06.653Z,16.77
2023-01-09T00:46:41.807Z,17.35
2023-01-09T00:49:10.413Z,17.00
2023-01-09T00:51:39.859Z,14.43
2023-01-09T00:54:08.026Z,16.52
2023-01-09T00:56:37.102Z,19.13
2023-01-09T00:59:05.598Z,16.27
2023-01-09T01:01:33.248Z,16.67
2023-01-09T01:04:20.642Z,16.25
2023-01-09T01:07:07.026Z,15.30
2023-01-09T01:09:34.484Z,14.80
2023-01-09T01:12:07.469Z,16.45
2023-01-09T01:14:37.188Z,19.00
2023-01-09T01:17:05.571Z,16.55
2023-01-09T01:19:35.237Z,16.33
2023-01-09T01:22:03.399Z,16.83
2023-01-09T01:24:31.233Z,17.10
2023-01-09T01:26:58.796Z,15.70
2023-01-09T01:29:26.918Z,16.75
2023-01-09T01:31:54.307Z,18.33
2023-01-09T01:34:21.919Z,17.33
2023-01-09T01:36:49.565Z,17.05
2023-01-09T01:39:17.672Z,16.88
2023-01-09T01:41:45.264Z,15.47
2023-01-09T01:44:50.202Z,16.23
2023-01-09T01:47:20.000Z,16.85
2023-01-09T01:49:47.950Z,18.05
2023-01-09T01:52:17.845Z,16.30
2023-01-09T01:54:46.701Z,17.10
2023-01-09T01:57:14.809Z,15.98
2023-01-09T01:59:50.636Z,17.90
2023-01-09T02:02:22.761Z,18.73
2023-01-09T02:04:54.188Z,16.40
2023-01-09T02:07:24.845Z,15.63
2023-01-09T02:09:52.996Z,16.33
2023-01-09T02:12:24.870Z,15.68
2023-01-09T02:15:05.424Z,16.83
2023-01-09T02:17:43.069Z,17.27
2023-01-09T02:20:49.431Z,18.13
2023-01-09T02:23:59.262Z,15.93
2023-01-09T02:26:53.813Z,15.73
2023-01-09T02:29:51.165Z,17.52
2023-01-09T02:32:26.820Z,17.23
2023-01-09T02:35:04.670Z,16.58
2023-01-09T02:37:52.160Z,18.38
2023-01-09T02:40:35.866Z,15.55
2023-01-09T02:43:05.477Z,16.17
2023-01-09T02:45:32.900Z,17.10
2023-01-09T02:48:00.548Z,15.02
2023-01-09T02:50:37.511Z,18.77
2023-01-09T02:53:51.625Z,18.30
2023-01-09T02:56:46.747Z,15.15
2023-01-09T02:59:22.008Z,16.00
2023-01-09T03:02:02.969Z,16.80
2023-01-09T03:05:02.222Z,13.80
2023-01-09T03:07:42.080Z,18.48
2023-01-09T03:10:17.225Z,19.38
2023-01-09T03:12:46.482Z,16.83
2023-01-09T03:15:15.988Z,15.93
2023-01-09T03:17:48.214Z,15.70
2023-01-09T03:20:21.548Z,17.42
2023-01-09T03:23:03.511Z,18.67
2023-01-09T03:25:32.228Z,18.85
2023-01-09T03:28:02.881Z,16.83
2023-01-09T03:30:32.430Z,17.35
2023-01-09T03:33:00.304Z,17.40
2023-01-09T03:35:28.352Z,17.60
2023-01-09T03:37:56.240Z,18.55
2023-01-09T03:40:23.840Z,15.60
2023-01-09T03:42:51.188Z,17.13
2023-01-09T03:45:19.846Z,15.98
2023-01-09T03:47:47.439Z,15.00
2023-01-09T03:50:15.578Z,13.82
2023-01-09T03:52:43.031Z,16.52
2023-01-09T03:55:10.660Z,15.70
2023-01-09T03:57:38.142Z,16.05
2023-01-09T04:00:06.374Z,14.70
2023-01-09T04:02:39.689Z,16.25
2023-01-09T04:05:08.115Z,15.77
2023-01-09T04:07:35.738Z,15.23
2023-01-09T04:10:03.821Z,15.55
2023-01-09T04:12:31.302Z,18.02
2023-01-09T04:14:58.727Z,15.23
2023-01-09T04:17:26.058Z,14.20
2023-01-09T04:19:53.795Z,14.68
2023-01-09T04:22:21.258Z,17.52
2023-01-09T04:24:48.850Z,15.63
2023-01-09T04:27:16.633Z,16.05
2023-01-09T04:29:44.308Z,14.32
2023-01-09T04:32:11.787Z,14.93
2023-01-09T04:34:39.533Z,14.35
2023-01-09T04:37:07.020Z,14.57
2023-01-09T04:39:34.544Z,14.82
2023-01-09T04:42:02.073Z,14.23
2023-01-09T04:44:30.003Z,15.82
2023-01-09T04:46:59.339Z,15.38
2023-01-09T04:49:27.188Z,14.85
2023-01-09T04:51:54.987Z,14.45
2023-01-09T04:54:22.632Z,24.20
2023-01-09T04:56:50.278Z,14.65
2023-01-09T04:59:17.703Z,13.65
2023-01-09T05:01:45.466Z,13.43
2023-01-09T05:04:14.413Z,13.85
2023-01-09T05:06:43.107Z,14.15
2023-01-09T05:09:10.887Z,14.43
2023-01-09T05:11:38.583Z,15.98
2023-01-09T05:14:06.130Z,14.50
2023-01-09T05:16:33.660Z,16.70
2023-01-09T05:19:01.587Z,14.07
2023-01-09T05:21:29.189Z,15.52
2023-01-09T05:23:56.731Z,14.45
2023-01-09T05:26:24.778Z,14.52
2023-01-09T05:28:53.440Z,14.20
2023-01-09T05:31:21.285Z,13.90
2023-01-09T05:33:49.201Z,17.33
2023-01-09T05:36:16.926Z,16.48
2023-01-09T05:38:44.621Z,14.80
2023-01-09T05:41:12.435Z,16.60
2023-01-09T05:43:40.118Z,16.13
2023-01-09T05:46:07.596Z,16.48
2023-01-09T05:48:35.467Z,15.45
2023-01-09T05:51:03.141Z,15.07
2023-01-09T05:53:30.906Z,16.58
2023-01-09T05:55:58.463Z,14.93
2023-01-09T05:58:26.112Z,14.18
2023-01-09T06:00:54.385Z,13.18
2023-01-09T06:03:22.329Z,15.27
2023-01-09T06:05:49.874Z,14.75
2023-01-09T06:08:17.731Z,15.07
2023-01-09T06:10:47.382Z,14.05
2023-01-09T06:13:15.304Z,15.18
2023-01-09T06:15:43.066Z,13.20
2023-01-09T06:18:11.143Z,13.43
2023-01-09T06:20:38.666Z,13.77
2023-01-09T06:23:06.450Z,13.85
2023-01-09T06:25:35.267Z,13.77
2023-01-09T06:28:05.036Z,15.32
2023-01-09T06:30:34.435Z,15.57
2023-01-09T06:33:05.315Z,15.70
2023-01-09T06:35:33.920Z,13.43
2023-01-09T06:38:03.350Z,13.82
2023-01-09T06:40:31.217Z,17.05
2023-01-09T06:42:58.729Z,14.38
2023-01-09T06:45:26.422Z,15.48
2023-01-09T06:47:54.049Z,17.20
2023-01-09T06:50:21.533Z,14.48
2023-01-09T06:52:48.907Z,15.48
2023-01-09T06:55:18.240Z,11.95
2023-01-09T06:57:45.684Z,13.70
2023-01-09T07:00:13.739Z,13.73
2023-01-09T07:02:41.464Z,15.65
2023-01-09T07:05:09.366Z,14.35
2023-01-09T07:07:36.947Z,12.93
2023-01-09T07:10:05.532Z,14.30
2023-01-09T07:12:33.116Z,15.40
2023-01-09T07:15:00.776Z,13.15
2023-01-09T07:17:28.653Z,14.98
2023-01-09T07:19:56.161Z,12.65
2023-01-09T07:22:23.522Z,13.00
2023-01-09T07:24:52.200Z,12.27
2023-01-09T07:27:19.642Z,13.20
2023-01-09T07:29:47.414Z,13.73
2023-01-09T07:32:15.010Z,14.27
2023-01-09T07:34:43.759Z,15.07
2023-01-09T07:37:11.353Z,12.73
2023-01-09T07:39:39.089Z,14.85
2023-01-09T07:42:07.639Z,13.02
2023-01-09T07:44:36.976Z,15.65
2023-01-09T07:47:04.510Z,14.50
2023-01-09T07:49:32.055Z,15.63
2023-01-09T07:51:59.467Z,13.75
2023-01-09T07:54:27.334Z,15.63
2023-01-09T07:56:54.810Z,14.82
2023-01-09T07:59:22.469Z,14.05
2023-01-09T08:01:50.232Z,13.73
2023-01-09T08:04:18.083Z,15.35
2023-01-09T08:06:45.748Z,14.25
2023-01-09T08:09:15.357Z,15.32
2023-01-09T08:11:43.165Z,13.52
2023-01-09T08:14:10.629Z,15.73
2023-01-09T08:16:38.150Z,19.48
2023-01-09T08:19:05.812Z,13.60
2023-01-09T08:21:33.423Z,18.17
2023-01-09T08:24:01.205Z,16.52
2023-01-09T08:26:28.596Z,14.25
2023-01-09T08:28:56.225Z,14.02
2023-01-09T08:31:24.361Z,16.05
2023-01-09T08:33:52.016Z,17.60
2023-01-09T08:36:19.610Z,19.60
2023-01-09T08:38:47.181Z,15.25
2023-01-09T08:41:33.298Z,17.42
2023-01-09T08:44:19.381Z,14.35
2023-01-09T08:47:05.778Z,18.95
2023-01-09T08:49:35.428Z,14.90
2023-01-09T08:52:03.279Z,17.63
2023-01-09T08:54:31.358Z,18.00
2023-01-09T08:56:59.037Z,14.50
2023-01-09T08:59:26.589Z,15.18
2023-01-09T09:01:54.006Z,14.88
2023-01-09T09:04:21.765Z,14.90
2023-01-09T09:06:49.238Z,14.02
2023-01-09T09:09:16.735Z,14.48
2023-01-09T09:11:44.185Z,16.63
2023-01-09T09:14:30.546Z,18.25
2023-01-09T09:16:58.166Z,15.60
2023-01-09T09:19:25.615Z,15.15
2023-01-09T09:21:53.150Z,18.33
2023-01-09T09:24:21.056Z,15.65
2023-01-09T09:26:48.499Z,15.00
2023-01-09T09:29:15.906Z,15.70
2023-01-09T09:31:43.669Z,16.90
2023-01-09T09:34:13.278Z,18.20
2023-01-09T09:36:40.921Z,19.13
2023-01-09T09:39:09.082Z,17.42
2023-01-09T09:42:02.587Z,17.27
2023-01-09T09:44:55.294Z,19.80
2023-01-09T09:48:05.223Z,23.30
2023-01-09T09:51:03.725Z,18.48
2023-01-09T09:53:43.787Z,19.25
2023-01-09T09:56:14.375Z,17.90
2023-01-09T09:59:04.515Z,17.58
2023-01-09T10:02:02.388Z,16.98
2023-01-09T10:04:32.910Z,25.83
2023-01-09T10:07:09.866Z,17.83
2023-01-09T10:09:56.073Z,18.23
2023-01-09T10:13:00.552Z,17.60
2023-01-09T10:15:55.067Z,18.20
2023-01-09T10:18:51.412Z,21.17
2023-01-09T10:21:32.712Z,15.38
2023-01-09T10:24:29.731Z,20.00
2023-01-09T10:26:58.618Z,20.27
2023-01-09T10:29:32.045Z,19.77
2023-01-09T10:32:23.018Z,19.63
2023-01-09T10:35:09.851Z,20.92
2023-01-09T10:37:45.527Z,17.42
2023-01-09T10:40:36.177Z,19.42
2023-01-09T10:43:15.175Z,19.38
2023-01-09T10:45:53.255Z,20.67
2023-01-09T10:48:29.898Z,20.30
2023-01-09T10:50:58.532Z,20.20
2023-01-09T10:53:39.105Z,18.85
2023-01-09T10:56:19.329Z,18.83
2023-01-09T10:58:47.887Z,20.55
2023-01-09T11:01:17.142Z,22.80
2023-01-09T11:03:45.116Z,22.30
2023-01-09T11:06:26.188Z,19.30
2023-01-09T11:08:59.894Z,16.65
2023-01-09T11:11:36.123Z,20.85
2023-01-09T11:14:33.923Z,17.80
2023-01-09T11:17:05.901Z,20.08
2023-01-09T11:19:33.767Z,16.52
2023-01-09T11:22:17.541Z,15.07
2023-01-09T11:24:45.903Z,17.02
2023-01-09T11:27:13.416Z,17.25
2023-01-09T11:29:43.979Z,14.00
2023-01-09T11:32:25.451Z,14.57
2023-01-09T11:34:52.960Z,14.18
2023-01-09T11:37:28.972Z,14.45
2023-01-09T11:40:01.269Z,13.68
2023-01-09T11:42:49.026Z,13.77
2023-01-09T11:45:31.175Z,15.52
2023-01-09T11:47:59.774Z,14.88
2023-01-09T11:50:29.216Z,14.32
2023-01-09T11:53:17.912Z,16.42
2023-01-09T11:55:47.613Z,11.53
2023-01-09T11:58:22.154Z,10.95
2023-01-09T12:01:01.664Z,11.10
2023-01-09T12:03:50.603Z,11.80
2023-01-09T12:06:27.999Z,13.10
2023-01-09T12:09:04.263Z,12.43
2023-01-09T12:11:41.513Z,13.02
2023-01-09T12:14:30.673Z,13.45
2023-01-09T12:17:20.703Z,14.50
2023-01-09T12:19:58.194Z,13.80
2023-01-09T12:22:32.472Z,13.03
2023-01-09T12:25:02.955Z,13.35
2023-01-09T12:28:20.207Z,14.63
2023-01-09T12:30:53.836Z,12.35
2023-01-09T12:33:44.251Z,13.73
2023-01-09T12:36:32.767Z,13.73
2023-01-09T12:39:33.158Z,20.58
2023-01-09T12:42:32.024Z,17.83
2023-01-09T12:45:35.053Z,15.48
2023-01-09T12:48:39.758Z,21.00
2023-01-09T12:51:24.593Z,13.93
2023-01-09T12:54:15.089Z,13.57
2023-01-09T12:56:54.966Z,15.05
2023-01-09T12:59:45.663Z,15.05
2023-01-09T13:02:34.691Z,15.70
2023-01-09T13:05:10.147Z,19.23
2023-01-09T13:07:47.194Z,19.27
2023-01-09T13:10:40.153Z,17.20
2023-01-09T13:13:48.010Z,19.80
2023-01-09T13:16:24.307Z,21.63
2023-01-09T13:18:59.527Z,17.63
2023-01-09T13:21:29.121Z,18.80
2023-01-09T13:24:01.057Z,21.20
2023-01-09T13:26:45.843Z,20.73
2023-01-09T13:29:37.998Z,51.95
2023-01-09T13:32:16.645Z,21.27
2023-01-09T13:34:47.104Z,21.05
2023-01-09T13:37:27.904Z,21.77
2023-01-09T13:40:01.472Z,23.52
2023-01-09T13:42:48.072Z,24.40
2023-01-09T13:45:18.634Z,22.13
2023-01-09T13:47:46.349Z,25.95
2023-01-09T13:50:27.936Z,26.50
2023-01-09T13:52:56.406Z,25.30
2023-01-09T13:55:31.454Z,28.40
2023-01-09T13:58:04.893Z,25.87
2023-01-09T14:00:35.575Z,27.90
2023-01-09T14:03:19.663Z,32.65
2023-01-09T14:05:47.207Z,28.88
2023-01-09T14:08:20.067Z,29.83
2023-01-09T14:10:58.223Z,36.93
2023-01-09T14:13:38.596Z,22.40
2023-01-09T14:16:21.021Z,32.40
2023-01-09T14:18:51.733Z,18.05
2023-01-09T14:21:19.984Z,28.33
2023-01-09T14:23:52.825Z,26.10
2023-01-09T14:26:42.258Z,27.45
2023-01-09T14:29:37.585Z,25.88
2023-01-09T14:32:23.857Z,27.45
2023-01-09T14:34:57.238Z,21.17
2023-01-09T14:37:26.772Z,18.33
2023-01-09T14:39:54.478Z,15.80
2023-01-09T14:42:29.176Z,18.30
2023-01-09T14:45:01.034Z,16.70
2023-01-09T14:47:31.466Z,15.88
2023-01-09T14:50:17.203Z,14.25
2023-01-09T14:52:57.413Z,15.30
2023-01-09T14:55:30.556Z,17.60
2023-01-09T14:58:22.696Z,15.52
2023-01-09T15:01:11.231Z,16.77
2023-01-09T15:03:42.217Z,15.05
2023-01-09T15:06:21.118Z,15.90
2023-01-09T15:08:57.978Z,17.27
2023-01-09T15:11:26.699Z,18.33
2023-01-09T15:13:54.853Z,19.30
2023-01-09T15:16:25.251Z,14.52
2023-01-09T15:19:00.547Z,14.50
2023-01-09T15:21:33.309Z,14.50
2023-01-09T15:24:29.009Z,21.25
2023-01-09T15:26:59.798Z,17.05
2023-01-09T15:29:28.972Z,17.42
2023-01-09T15:32:08.080Z,45.55
2023-01-09T15:34:36.279Z,16.98
2023-01-09T15:37:04.460Z,17.80
2023-01-09T15:39:37.356Z,18.85
2023-01-09T15:42:23.879Z,17.92
2023-01-09T15:44:54.235Z,17.35
2023-01-09T15:47:24.692Z,21.17
2023-01-09T15:49:53.070Z,21.52
2023-01-09T15:52:22.225Z,21.85
2023-01-09T15:54:49.630Z,16.38
2023-01-09T15:57:26.239Z,21.77
2023-01-09T15:59:54.545Z,17.60
2023-01-09T16:02:42.469Z,18.98
2023-01-09T16:05:17.352Z,20.00
2023-01-09T16:07:52.011Z,18.13
2023-01-09T16:10:25.126Z,18.02
2023-01-09T16:12:54.999Z,18.23
2023-01-09T16:15:22.796Z,15.30
2023-01-09T16:18:19.109Z,18.60
2023-01-09T16:20:47.013Z,16.23
2023-01-09T16:23:30.683Z,21.67
2023-01-09T16:26:06.940Z,21.88
2023-01-09T16:28:34.487Z,29.55
2023-01-09T16:31:07.493Z,27.88
2023-01-09T16:33:36.264Z,26.58
2023-01-09T16:36:06.176Z,26.10
2023-01-09T16:38:33.813Z,25.88
2023-01-09T16:41:39.055Z,26.83
2023-01-09T16:44:11.592Z,25.92
2023-01-09T16:46:48.388Z,27.88
2023-01-09T16:49:24.066Z,24.08
2023-01-09T16:51:52.301Z,26.65
2023-01-09T16:54:20.483Z,29.60
2023-01-09T16:56:50.677Z,31.67
2023-01-09T16:59:26.759Z,27.58
2023-01-09T17:01:56.148Z,29.08
2023-01-09T17:04:26.800Z,29.35
2023-01-09T17:06:54.589Z,28.92
2023-01-09T17:09:27.525Z,30.83
2023-01-09T17:11:56.112Z,25.15
2023-01-09T17:14:23.605Z,25.98
2023-01-09T17:16:51.440Z,39.58
2023-01-09T17:19:20.878Z,25.33
2023-01-09T17:21:48.456Z,26.05
2023-01-09T17:24:34.926Z,28.30
2023-01-09T17:27:21.709Z,28.10
2023-01-09T17:29:49.455Z,26.60
2023-01-09T17:32:19.559Z,31.25
2023-01-09T17:34:47.418Z,27.40
2023-01-09T17:37:17.021Z,25.52
2023-01-09T17:39:45.877Z,26.98
2023-01-09T17:42:13.344Z,29.45
2023-01-09T17:44:48.959Z,25.30
2023-01-09T17:47:17.215Z,31.13
2023-01-09T17:49:44.716Z,30.75
2023-01-09T17:52:12.518Z,26.13
2023-01-09T17:54:40.002Z,30.35
2023-01-09T17:57:08.167Z,28.05
2023-01-09T17:59:36.115Z,27.70
2023-01-09T18:02:04.765Z,25.77
2023-01-09T18:04:32.148Z,29.30
2023-01-09T18:07:02.191Z,31.83
2023-01-09T18:09:31.306Z,27.05
2023-01-09T18:11:59.044Z,26.30
2023-01-09T18:14:26.656Z,42.22
2023-01-09T18:16:54.657Z,44.97
2023-01-09T18:19:23.788Z,28.63
2023-01-09T18:21:52.095Z,30.15
2023-01-09T18:24:26.980Z,29.30
2023-01-09T18:26:55.030Z,30.40
2023-01-09T18:29:22.602Z,30.83
2023-01-09T18:31:52.143Z,25.40
2023-01-09T18:34:20.988Z,25.95
2023-01-09T18:36:48.674Z,25.88
2023-01-09T18:39:24.711Z,31.50
2023-01-09T18:41:52.298Z,24.40
2023-01-09T18:44:22.429Z,28.70
2023-01-09T18:46:50.222Z,29.27
2023-01-09T18:49:17.858Z,27.10
2023-01-09T18:51:45.781Z,27.80
2023-01-09T18:54:13.563Z,23.98
2023-01-09T18:56:41.269Z,27.85
2023-01-09T18:59:10.156Z,25.17
2023-01-09T19:01:37.793Z,28.40
2023-01-09T19:04:05.448Z,28.65
2023-01-09T19:06:34.313Z,21.85
2023-01-09T19:09:01.696Z,25.58
2023-01-09T19:11:29.363Z,25.60
2023-01-09T19:13:56.914Z,25.70
2023-01-09T19:16:24.780Z,24.85
2023-01-09T19:18:53.561Z,30.08
2023-01-09T19:21:24.299Z,24.48
2023-01-09T19:23:51.656Z,26.90
2023-01-09T19:26:27.495Z,23.55
2023-01-09T19:28:57.862Z,24.33
2023-01-09T19:31:28.918Z,29.60
2023-01-09T19:33:57.673Z,26.60
2023-01-09T19:36:25.176Z,23.10
2023-01-09T19:38:57.843Z,23.45
2023-01-09T19:41:25.810Z,26.92
2023-01-09T19:43:53.559Z,25.73
2023-01-09T19:46:23.566Z,26.42
2023-01-09T19:48:52.167Z,26.85
2023-01-09T19:51:24.740Z,23.27
2023-01-09T19:53:54.895Z,25.63
2023-01-09T19:56:24.074Z,25.02
2023-01-09T19:58:54.602Z,23.55
2023-01-09T20:01:24.991Z,28.58
2023-01-09T20:03:53.482Z,23.23
2023-01-09T20:06:33.888Z,25.23
2023-01-09T20:09:04.712Z,21.50
2023-01-09T20:11:45.901Z,23.58
2023-01-09T20:14:44.685Z,21.92
2023-01-09T20:20:08.681Z,23.10
2023-01-09T20:22:37.468Z,23.70
2023-01-09T20:25:05.207Z,19.38
2023-01-09T20:27:32.856Z,26.52
2023-01-09T20:30:17.195Z,21.35
2023-01-09T20:35:33.751Z,19.77
2023-01-09T20:38:01.255Z,22.02
2023-01-09T20:40:29.023Z,24.35
2023-01-09T20:42:56.717Z,19.83
2023-01-09T20:45:24.599Z,20.88
2023-01-09T20:47:52.215Z,22.85
2023-01-09T20:50:19.885Z,23.10
2023-01-09T20:52:47.947Z,21.67
2023-01-09T20:55:15.537Z,22.83
2023-01-09T20:57:43.206Z,24.52
2023-01-09T21:00:12.018Z,24.52
2023-01-09T21:03:20.974Z,24.20
2023-01-09T21:06:04.056Z,22.95
2023-01-09T21:08:33.109Z,24.00
2023-01-09T21:11:00.602Z,22.05
2023-01-09T21:13:32.454Z,27.73
2023-01-09T21:16:06.650Z,22.95
2023-01-09T21:18:35.623Z,24.25
2023-01-09T21:21:08.571Z,32.60
2023-01-09T21:23:38.391Z,23.42
2023-01-09T21:26:10.158Z,26.73
2023-01-09T21:28:48.612Z,22.13
2023-01-09T21:31:19.992Z,22.50
2023-01-09T21:33:48.512Z,26.50
2023-01-09T21:36:16.485Z,20.73
2023-01-09T21:38:44.109Z,24.80
2023-01-09T21:41:30.449Z,23.63
2023-01-09T21:44:16.258Z,27.63
2023-01-09T21:46:53.465Z,26.10
2023-01-09T21:49:25.683Z,31.05
2023-01-09T21:51:56.775Z,29.55
2023-01-09T21:54:24.975Z,27.30
2023-01-09T21:56:53.410Z,29.58
2023-01-09T21:59:21.459Z,25.45
2023-01-09T22:01:52.686Z,27.35
2023-01-09T22:04:34.389Z,23.60
2023-01-09T22:07:12.388Z,24.17
2023-01-09T22:09:49.987Z,24.02
2023-01-09T22:12:21.092Z,23.30
2023-01-09T22:14:52.137Z,23.42
2023-01-09T22:17:20.756Z,30.92
2023-01-09T22:19:49.370Z,22.60
2023-01-09T22:22:17.223Z,23.63
2023-01-09T22:24:44.819Z,21.88
2023-01-09T22:27:12.552Z,20.90
2023-01-09T22:29:40.083Z,20.17
2023-01-09T22:32:08.285Z,20.95
2023-01-09T22:34:35.670Z,37.95
2023-01-09T22:37:04.091Z,21.48
2023-01-09T22:39:31.590Z,23.52
2023-01-09T22:41:59.458Z,19.58
2023-01-09T22:44:27.084Z,21.27
2023-01-09T22:46:54.640Z,25.30
2023-01-09T22:49:22.051Z,26.38
2023-01-09T22:51:49.727Z,26.58
2023-01-09T22:54:17.361Z,24.00
2023-01-09T22:56:44.979Z,23.25
2023-01-09T22:59:14.541Z,21.85
2023-01-09T23:01:44.479Z,23.30
2023-01-09T23:04:17.626Z,24.17
2023-01-09T23:06:45.419Z,22.98
2023-01-09T23:09:12.752Z,23.42
2023-01-09T23:11:58.816Z,28.90
2023-01-09T23:14:26.412Z,26.70
2023-01-09T23:16:54.816Z,27.65
2023-01-09T23:19:22.581Z,29.73
2023-01-09T23:21:50.058Z,26.77
2023-01-09T23:24:18.423Z,22.58
2023-01-09T23:26:46.855Z,24.02
2023-01-09T23:29:14.645Z,22.98
2023-01-09T23:31:42.141Z,23.55
2023-01-09T23:34:13.588Z,28.58
2023-01-09T23:36:41.664Z,27.38
2023-01-09T23:39:10.319Z,26.25
2023-01-09T23:41:56.694Z,29.23
2023-01-09T23:44:24.502Z,26.85
2023-01-09T23:46:52.232Z,24.67
2023-01-09T23:49:20.452Z,25.80
2023-01-09T23:51:48.011Z,25.55
2023-01-09T23:54:17.244Z,25.40
2023-01-09T23:56:45.347Z,29.10
2023-01-09T23:59:15.006Z,26.25
